This is the latest recevied weather packets stored in our database for station/object K1RFS. If no packets are shown the sender has not sent any weather packets the latest 10 day(s).
| Time | Temp. | Humidity | Pressure | Rain* | Wind** | Luminosity | Snow |
|---|---|---|---|---|---|---|---|
| 1788022190 | 17.78° C | 84% | 1005.8 hPa | 0 mm | - | 58 W/m² | - |
| 1788021889 | 17.78° C | 85% | 1005.6 hPa | 0 mm | - | 238 W/m² | - |
| 1788021589 | 17.78° C | 87% | 1006.1 hPa | 0 mm | - | 124 W/m² | - |
| 1788021287 | 17.78° C | 88% | 1006.3 hPa | 0 mm | - | 97 W/m² | - |
| 1788020982 | 17.78° C | 88% | 1006.5 hPa | 0 mm | - | 42 W/m² | - |
| 1788020677 | 17.78° C | 89% | 1006.4 hPa | 0 mm | - | 33 W/m² | - |
| 1788020372 | 17.78° C | 89% | 1006.2 hPa | 0 mm | - | 26 W/m² | - |
| 1788020069 | 17.78° C | 90% | 1006.3 hPa | 0 mm | - | 55 W/m² | - |
| 1788019769 | 17.78° C | 90% | 1006.5 hPa | 0 mm | - | 33 W/m² | - |
| 1788019468 | 17.78° C | 90% | 1006.4 hPa | 0 mm | - | 43 W/m² | - |
| 1788019166 | 17.78° C | 91% | 1006.2 hPa | 0 mm | - | 79 W/m² | - |
| 1788018861 | 17.78° C | 91% | 1006.1 hPa | 0 mm | - | 90 W/m² | - |
| 1788018556 | 17.78° C | 92% | 1006.1 hPa | 0 mm | - | 107 W/m² | - |
| 1788018254 | 17.22° C | 92% | 1006 hPa | 0 mm | - | 77 W/m² | - |
| 1788017951 | 17.22° C | 92% | 1005.7 hPa | 0 mm | - | 54 W/m² | - |
| 1788017647 | 17.22° C | 92% | 1005.6 hPa | 0 mm | - | 66 W/m² | - |
| 1788017344 | 17.78° C | 92% | 1005.5 hPa | 0 mm | - | 79 W/m² | - |
| 1788017040 | 17.78° C | 91% | 1005.7 hPa | 0 mm | - | 92 W/m² | - |
| 1788016739 | 17.78° C | 91% | 1005.6 hPa | 0 mm | - | 93 W/m² | - |
| 1788016437 | 17.22° C | 91% | 1005.5 hPa | 0 mm | - | 78 W/m² | - |
| 1788016137 | 17.22° C | 91% | 1005.3 hPa | 0 mm | - | 53 W/m² | - |
| 1788015836 | 17.22° C | 91% | 1005.2 hPa | 0 mm | - | 79 W/m² | - |
| 1788015531 | 17.22° C | 91% | 1005.5 hPa | 0 mm | - | 51 W/m² | - |
| 1788015226 | 16.67° C | 91% | 1005.3 hPa | 0 mm | - | 59 W/m² | - |
| 1788014924 | 16.67° C | 91% | 1005.3 hPa | 0 mm | - | 55 W/m² | - |
* Rain latest hour (hover to see other rain measurements)
** Current wind speed in m/s (hover to see current wind gust speed)